Conway, North Dakota
Current Conditions -  °F | °C
As of 8:58 PM on Monday 22 Dec 2014 (Local Time) from KRDR Reporting Station
Haze Haze  
Wind Chill: -2°   Ceiling: 200
Heat Index:   Visibility: 4mi
Dew Point:   Wind: 8mph
Humidity: 100%   Direction: 30°NNE
Pressure: 29.71"   Gusts: NA
Location:  48.2362°N, 97.4515°W
Report Text: KRDR 230258Z AUTO 03007KT 4SM R35/4500FT BR OVC002 01/01 A2971 RMK AO2 RAB0213E0222 SLP076 P0001 60007 T00130013 52020 $
Loading
Personal Weather Stations






























Interactive Weather Map New forecast layout! Learn more

10-Day Weather Forecast

Advertisements
Track Severe Weather on mobile